An Xiu Shan — BRQV — position and weather

sailwx.info

Track history (hours):
 
Tides and Currents Weather Stations Pressure Air Temp Water Temp Dewpoint Dewpoint Depression Visibility Wind Speed Wind Dir Waves Ship Positions

An Xiu Shan

Last reported at 2015-Jan-30 00:09 UTC. Time now 2015-Jan-30 20:08 UTC.
Position N 23°39' E 117°59'.

Length 199 m; draft 12.6 m.

Type: Cargo ship. MMSI: 413195000.

Date/timePositionNaut miles runAvg speedWind from/ knotsBaromVisibWave heightAir tempDewpointWater temp
2015-Jan-30 00:09N 23°39' E 117°59'710.3
2015-Jan-29 23:28N 23°42' E 118°05'910.0
2015-Jan-29 22:33N 23°48' E 118°13'13 9.8
2015-Jan-29 21:15N 23°56' E 118°23'38810.6
2015-Jan-28 08:33N 29°11' E 122°37'2510.4
2015-Jan-28 06:11N 29°34' E 122°48'47910.3
2015-Jan-26 07:33N 37°33' E 122°39'6611.0
2015-Jan-26 01:33N 38°13' E 121°32'1111.2
2015-Jan-26 00:32N 38°20' E 121°21'75 1.5
2015-Jan-23 22:32N 38°30' E 119°45'8311.9
2015-Jan-23 15:33N 38°18' E 121°30'2411.5
2015-Jan-23 13:26N 38°05' E 121°56'1011.5
2015-Jan-23 12:33N 37°59' E 122°07'1312.1
2015-Jan-23 11:30N 37°53' E 122°21'1212.5
2015-Jan-23 10:33N 37°45' E 122°33'1511.9
2015-Jan-23 09:17N 37°35' E 122°46'1513.2
2015-Jan-23 08:11N 37°21' E 122°52'381 9.9
2015-Jan-21 17:33N 31°01' E 122°25'1313.2
2015-Jan-21 16:33N 31°03' E 122°10'1110.9
2015-Jan-21 15:33N 31°06' E 121°58'8 8.1
2015-Jan-21 14:33N 31°11' E 121°50'1111.2
2015-Jan-21 13:33N 31°19' E 121°42'1211.6
2015-Jan-21 12:33N 31°25' E 121°30'1110.6
2015-Jan-21 11:33N 31°32' E 121°21'1313.4
2015-Jan-21 10:33N 31°42' E 121°10'1312.7
2015-Jan-21 09:33N 31°47' E 120°56'1111.4
2015-Jan-21 08:33N 31°58' E 120°51'9 9.1
2015-Jan-21 07:33N 31°60' E 120°41'9 8.5
2015-Jan-21 06:33N 32°04' E 120°32'9 9.1
2015-Jan-21 05:33N 32°00' E 120°22'1211.6
2015-Jan-21 04:34N 31°56' E 120°09'1212.2
2015-Jan-21 03:33N 32°02' E 119°57'1313.1
2015-Jan-21 02:33N 32°15' E 119°52'32 8.0
2015-Jan-20 22:30N 32°13' E 119°14'3 0.7
2015-Jan-20 18:14N 32°14' E 119°11'0 0.0
2015-Jan-20 17:32N 32°14' E 119°11'  
Track history (hours):
 
Tides and Currents Weather Stations Pressure Air Temp Water Temp Dewpoint Dewpoint Depression Visibility Wind Speed Wind Dir Waves Ship Positions

An Xiu Shan

Last reported at 2015-Jan-30 00:09 UTC. Time now 2015-Jan-30 20:08 UTC.
Position N 23°39' E 117°59'.

Length 199 m; draft 12.6 m.

Type: Cargo ship. MMSI: 413195000.

Date/timePositionNaut miles runAvg speedWind from/ knotsBaromVisibWave heightAir tempDewpointWater temp
2015-Jan-30 00:09N 23°39' E 117°59'710.3
2015-Jan-29 23:28N 23°42' E 118°05'910.0
2015-Jan-29 22:33N 23°48' E 118°13'13 9.8
2015-Jan-29 21:15N 23°56' E 118°23'38810.6
2015-Jan-28 08:33N 29°11' E 122°37'2510.4
2015-Jan-28 06:11N 29°34' E 122°48'47910.3
2015-Jan-26 07:33N 37°33' E 122°39'6611.0
2015-Jan-26 01:33N 38°13' E 121°32'1111.2
2015-Jan-26 00:32N 38°20' E 121°21'75 1.5
2015-Jan-23 22:32N 38°30' E 119°45'8311.9
2015-Jan-23 15:33N 38°18' E 121°30'2411.5
2015-Jan-23 13:26N 38°05' E 121°56'1011.5
2015-Jan-23 12:33N 37°59' E 122°07'1312.1
2015-Jan-23 11:30N 37°53' E 122°21'1212.5
2015-Jan-23 10:33N 37°45' E 122°33'1511.9
2015-Jan-23 09:17N 37°35' E 122°46'1513.2
2015-Jan-23 08:11N 37°21' E 122°52'381 9.9
2015-Jan-21 17:33N 31°01' E 122°25'1313.2
2015-Jan-21 16:33N 31°03' E 122°10'1110.9
2015-Jan-21 15:33N 31°06' E 121°58'8 8.1
2015-Jan-21 14:33N 31°11' E 121°50'1111.2
2015-Jan-21 13:33N 31°19' E 121°42'1211.6
2015-Jan-21 12:33N 31°25' E 121°30'1110.6
2015-Jan-21 11:33N 31°32' E 121°21'1313.4
2015-Jan-21 10:33N 31°42' E 121°10'1312.7
2015-Jan-21 09:33N 31°47' E 120°56'1111.4
2015-Jan-21 08:33N 31°58' E 120°51'9 9.1
2015-Jan-21 07:33N 31°60' E 120°41'9 8.5
2015-Jan-21 06:33N 32°04' E 120°32'9 9.1
2015-Jan-21 05:33N 32°00' E 120°22'1211.6
2015-Jan-21 04:34N 31°56' E 120°09'1212.2
2015-Jan-21 03:33N 32°02' E 119°57'1313.1
2015-Jan-21 02:33N 32°15' E 119°52'32 8.0
2015-Jan-20 22:30N 32°13' E 119°14'3 0.7
2015-Jan-20 18:14N 32°14' E 119°11'0 0.0
2015-Jan-20 17:32N 32°14' E 119°11'  

Dump ship's entire track history